createdAt,value
2019-02-25T00:02:06.490Z,6.17
2019-02-25T00:04:40.164Z,6.10
2019-02-25T00:07:10.799Z,6.47
2019-02-25T00:09:45.347Z,5.67
2019-02-25T00:12:38.563Z,6.50
2019-02-25T00:15:12.875Z,5.67
2019-02-25T00:17:44.355Z,5.60
2019-02-25T00:20:15.868Z,5.50
2019-02-25T00:22:46.875Z,6.03
2019-02-25T00:25:17.851Z,5.80
2019-02-25T00:27:48.713Z,6.23
2019-02-25T00:30:19.530Z,5.60
2019-02-25T00:32:50.609Z,5.73
2019-02-25T00:35:21.334Z,6.23
2019-02-25T00:37:52.872Z,5.73
2019-02-25T00:40:23.704Z,6.27
2019-02-25T00:42:54.582Z,6.40
2019-02-25T00:45:25.473Z,5.80
2019-02-25T00:47:56.745Z,6.00
2019-02-25T00:50:27.613Z,5.63
2019-02-25T00:52:58.497Z,7.17
2019-02-25T00:55:29.611Z,5.70
2019-02-25T00:58:00.550Z,5.67
2019-02-25T01:00:34.518Z,6.03
2019-02-25T01:03:07.346Z,5.57
2019-02-25T01:05:39.240Z,6.57
2019-02-25T01:08:14.318Z,4.83
2019-02-25T01:10:45.359Z,5.57
2019-02-25T01:13:16.380Z,6.13
2019-02-25T01:15:47.391Z,6.50
2019-02-25T01:18:18.060Z,5.77
2019-02-25T01:20:48.672Z,6.20
2019-02-25T01:23:19.305Z,6.07
2019-02-25T01:25:50.303Z,5.77
2019-02-25T01:28:21.318Z,6.23
2019-02-25T01:30:52.855Z,5.33
2019-02-25T01:33:23.480Z,5.47
2019-02-25T01:35:54.311Z,6.23
2019-02-25T01:38:25.144Z,5.87
2019-02-25T01:40:55.980Z,5.77
2019-02-25T01:43:29.812Z,7.07
2019-02-25T01:46:01.004Z,5.07
2019-02-25T01:48:32.393Z,6.30
2019-02-25T01:51:03.371Z,5.10
2019-02-25T01:53:34.187Z,6.17
2019-02-25T01:56:05.266Z,6.77
2019-02-25T01:58:36.222Z,6.23
2019-02-25T02:01:06.856Z,5.43
2019-02-25T02:03:37.691Z,6.03
2019-02-25T02:06:08.707Z,6.37
2019-02-25T02:08:42.383Z,6.53
2019-02-25T02:11:13.404Z,6.27
2019-02-25T02:13:44.381Z,6.13
2019-02-25T02:16:15.300Z,6.90
2019-02-25T02:18:46.248Z,5.57
2019-02-25T02:21:17.324Z,6.17
2019-02-25T02:23:47.961Z,6.67
2019-02-25T02:26:18.617Z,5.33
2019-02-25T02:28:49.574Z,5.77
2019-02-25T02:31:20.209Z,6.10
2019-02-25T02:33:51.335Z,5.27
2019-02-25T02:36:22.064Z,5.20
2019-02-25T02:38:52.835Z,5.73
2019-02-25T02:41:23.683Z,5.70
2019-02-25T02:43:54.910Z,6.37
2019-02-25T02:46:40.713Z,5.13
2019-02-25T02:49:14.394Z,5.57
2019-02-25T02:51:45.400Z,4.93
2019-02-25T02:54:16.101Z,5.97
2019-02-25T02:56:47.052Z,5.53
2019-02-25T02:59:20.482Z,5.70
2019-02-25T03:01:51.518Z,6.20
2019-02-25T03:04:23.293Z,5.77
2019-02-25T03:06:54.337Z,5.63
2019-02-25T03:09:30.031Z,6.27
2019-02-25T03:12:00.860Z,5.33
2019-02-25T03:14:31.654Z,5.03
2019-02-25T03:17:02.451Z,6.30
2019-02-25T03:19:33.233Z,5.67
2019-02-25T03:22:04.717Z,5.60
2019-02-25T03:24:35.811Z,6.40
2019-02-25T03:27:06.715Z,5.50
2019-02-25T03:29:38.108Z,5.17
2019-02-25T03:32:08.794Z,5.40
2019-02-25T03:34:39.479Z,5.23
2019-02-25T03:37:10.466Z,4.90
2019-02-25T03:39:41.379Z,5.70
2019-02-25T03:42:15.385Z,6.43
2019-02-25T03:44:46.050Z,6.13
2019-02-25T03:47:16.682Z,5.50
2019-02-25T03:49:47.414Z,5.07
2019-02-25T03:52:18.438Z,5.87
2019-02-25T03:54:52.281Z,5.77
2019-02-25T03:57:23.828Z,5.47
2019-02-25T03:59:55.208Z,5.33
2019-02-25T04:02:26.546Z,5.50
2019-02-25T04:04:57.851Z,5.80
2019-02-25T04:07:28.813Z,5.57
2019-02-25T04:09:59.512Z,5.47
2019-02-25T04:12:30.547Z,5.33
2019-02-25T04:15:01.283Z,5.10
2019-02-25T04:17:32.041Z,5.00
2019-02-25T04:20:02.885Z,5.50
2019-02-25T04:22:33.585Z,4.57
2019-02-25T04:25:04.654Z,5.40
2019-02-25T04:27:35.426Z,5.40
2019-02-25T04:30:07.741Z,4.70
2019-02-25T04:32:44.142Z,4.93
2019-02-25T04:35:15.037Z,5.73
2019-02-25T04:37:45.902Z,5.17
2019-02-25T04:40:17.262Z,5.40
2019-02-25T04:42:47.845Z,4.93
2019-02-25T04:45:18.848Z,5.70
2019-02-25T04:47:49.639Z,5.40
2019-02-25T04:50:20.592Z,5.30
2019-02-25T04:52:51.452Z,6.00
2019-02-25T04:55:22.681Z,5.47
2019-02-25T04:57:53.645Z,4.90
2019-02-25T05:00:24.626Z,4.90
2019-02-25T05:02:55.510Z,4.57
2019-02-25T05:05:26.592Z,4.43
2019-02-25T05:07:57.164Z,4.77
2019-02-25T05:10:28.281Z,4.73
2019-02-25T05:13:04.788Z,4.33
2019-02-25T05:15:35.910Z,5.03
2019-02-25T05:18:07.404Z,4.90
2019-02-25T05:20:38.249Z,5.47
2019-02-25T05:23:09.333Z,4.20
2019-02-25T05:25:40.077Z,5.27
2019-02-25T05:28:11.128Z,5.80
2019-02-25T05:30:42.109Z,4.97
2019-02-25T05:33:13.341Z,4.83
2019-02-25T05:35:44.266Z,5.27
2019-02-25T05:38:15.184Z,5.20
2019-02-25T05:40:45.918Z,5.27
2019-02-25T05:43:16.615Z,4.53
2019-02-25T05:45:47.360Z,4.60
2019-02-25T05:48:18.161Z,4.70
2019-02-25T05:50:49.652Z,5.13
2019-02-25T05:53:20.484Z,4.60
2019-02-25T05:55:51.031Z,4.50
2019-02-25T05:58:22.539Z,5.63
2019-02-25T06:00:53.157Z,4.67
2019-02-25T06:03:23.850Z,5.53
2019-02-25T06:05:57.927Z,4.77
2019-02-25T06:08:29.240Z,4.90
2019-02-25T06:11:00.126Z,4.50
2019-02-25T06:13:31.051Z,4.67
2019-02-25T06:18:55.055Z,4.73
2019-02-25T06:21:26.102Z,4.40
2019-02-25T06:23:57.008Z,5.20
2019-02-25T06:26:28.050Z,4.63
2019-02-25T06:28:58.855Z,5.20
2019-02-25T06:31:29.796Z,5.30
2019-02-25T06:34:01.267Z,4.83
2019-02-25T06:36:32.307Z,5.60
2019-02-25T06:39:07.487Z,5.33
2019-02-25T06:41:41.371Z,5.37
2019-02-25T06:44:13.006Z,5.47
2019-02-25T06:46:43.996Z,4.93
2019-02-25T06:49:14.891Z,5.97
2019-02-25T06:51:47.417Z,5.73
2019-02-25T06:54:18.273Z,5.27
2019-02-25T06:56:49.304Z,4.90
2019-02-25T06:59:20.234Z,4.07
2019-02-25T07:01:51.207Z,4.60
2019-02-25T07:04:30.965Z,4.23
2019-02-25T07:07:11.396Z,4.60
2019-02-25T07:10:24.938Z,5.50
2019-02-25T07:13:17.612Z,4.67
2019-02-25T07:16:26.089Z,4.43
2019-02-25T07:19:21.620Z,5.30
2019-02-25T07:22:13.683Z,5.00
2019-02-25T07:25:11.985Z,4.20
2019-02-25T07:28:17.844Z,4.80
2019-02-25T07:31:08.916Z,8.93
2019-02-25T07:34:01.746Z,5.77
2019-02-25T07:36:42.215Z,4.30
2019-02-25T07:39:50.428Z,4.40
2019-02-25T07:42:44.107Z,5.57
2019-02-25T07:45:35.094Z,4.33
2019-02-25T07:48:19.061Z,4.73
2019-02-25T07:51:07.971Z,5.00
2019-02-25T07:54:08.682Z,4.23
2019-02-25T07:56:49.607Z,4.43
2019-02-25T07:59:31.579Z,6.87
2019-02-25T08:02:11.771Z,4.47
2019-02-25T08:04:47.732Z,5.17
2019-02-25T08:07:34.867Z,3.87
2019-02-25T08:10:34.885Z,4.20
2019-02-25T08:13:12.784Z,5.10
2019-02-25T08:16:01.488Z,4.30
2019-02-25T08:18:50.596Z,4.53
2019-02-25T08:21:39.212Z,4.43
2019-02-25T08:24:44.354Z,4.97
2019-02-25T08:27:40.772Z,4.30
2019-02-25T08:30:42.984Z,4.77
2019-02-25T08:33:28.551Z,5.30
2019-02-25T08:37:30.170Z,4.53
2019-02-25T08:41:22.406Z,4.63
2019-02-25T08:44:10.813Z,4.70
2019-02-25T08:46:47.024Z,5.90
2019-02-25T08:49:24.337Z,5.20
2019-02-25T08:52:01.084Z,5.00
2019-02-25T08:54:33.384Z,4.40
2019-02-25T08:57:07.447Z,4.93
2019-02-25T08:59:45.254Z,4.40
2019-02-25T09:02:16.682Z,5.50
2019-02-25T09:04:49.307Z,4.90
2019-02-25T09:07:21.656Z,5.57
2019-02-25T09:09:52.756Z,5.57
2019-02-25T09:12:24.274Z,4.57
2019-02-25T09:14:56.298Z,4.73
2019-02-25T09:17:27.194Z,5.50
2019-02-25T09:19:57.772Z,5.43
2019-02-25T09:22:31.370Z,5.20
2019-02-25T09:25:05.413Z,5.60
2019-02-25T09:27:45.326Z,6.03
2019-02-25T09:30:20.196Z,4.97
2019-02-25T09:33:15.544Z,5.87
2019-02-25T09:35:49.788Z,5.40
2019-02-25T09:38:20.720Z,5.30
2019-02-25T09:40:51.528Z,5.20
2019-02-25T09:43:22.835Z,5.27
2019-02-25T09:45:57.109Z,5.97
2019-02-25T09:48:28.587Z,5.83
2019-02-25T09:50:59.256Z,5.63
2019-02-25T09:53:29.998Z,6.93
2019-02-25T09:56:00.677Z,7.93
2019-02-25T09:58:31.374Z,7.60
2019-02-25T10:01:02.234Z,6.43
2019-02-25T10:03:34.621Z,6.33
2019-02-25T10:06:05.598Z,5.20
2019-02-25T10:08:36.487Z,4.77
2019-02-25T10:11:16.605Z,4.83
2019-02-25T10:13:49.474Z,4.50
2019-02-25T10:16:20.198Z,3.70
2019-02-25T10:18:59.451Z,4.20
2019-02-25T10:21:30.236Z,3.47
2019-02-25T10:24:00.859Z,4.50
2019-02-25T10:26:31.867Z,3.63
2019-02-25T10:29:09.706Z,4.90
2019-02-25T10:31:43.800Z,3.70
2019-02-25T10:34:18.098Z,6.73
2019-02-25T10:36:51.910Z,5.53
2019-02-25T10:39:22.675Z,5.07
2019-02-25T10:42:06.270Z,4.40
2019-02-25T10:44:36.518Z,4.37
2019-02-25T10:47:19.042Z,4.30
2019-02-25T10:49:51.094Z,4.17
2019-02-25T10:52:22.213Z,4.50
2019-02-25T10:54:54.491Z,4.17
2019-02-25T10:57:29.168Z,3.83
2019-02-25T10:59:59.809Z,4.47
2019-02-25T11:02:44.278Z,3.90
2019-02-25T11:05:16.617Z,4.70
2019-02-25T11:07:51.285Z,4.97
2019-02-25T11:10:40.819Z,5.07
2019-02-25T11:13:12.305Z,4.43
2019-02-25T11:15:44.591Z,5.40
2019-02-25T11:18:19.156Z,4.33
2019-02-25T11:20:49.869Z,4.10
2019-02-25T11:23:23.551Z,5.10
2019-02-25T11:26:00.079Z,4.10
2019-02-25T11:28:33.892Z,4.30
2019-02-25T11:31:04.612Z,3.90
2019-02-25T11:33:43.843Z,5.00
2019-02-25T11:36:21.969Z,4.20
2019-02-25T11:38:52.602Z,4.30
2019-02-25T11:41:23.436Z,3.63
2019-02-25T11:43:55.310Z,4.03
2019-02-25T11:46:29.841Z,3.60
2019-02-25T11:49:08.444Z,4.33
2019-02-25T11:51:39.716Z,3.93
2019-02-25T11:54:10.790Z,4.60
2019-02-25T11:56:41.874Z,4.73
2019-02-25T11:59:25.736Z,4.50
2019-02-25T12:01:56.859Z,3.83
2019-02-25T12:04:33.852Z,3.90
2019-02-25T12:07:05.204Z,4.50
2019-02-25T12:09:36.939Z,4.03
2019-02-25T12:12:09.388Z,4.10
2019-02-25T12:14:43.067Z,3.70
2019-02-25T12:17:13.725Z,4.10
2019-02-25T12:19:44.224Z,4.17
2019-02-25T12:22:18.100Z,4.23
2019-02-25T12:25:01.026Z,3.37
2019-02-25T12:27:34.828Z,3.90
2019-02-25T12:30:10.884Z,3.60
2019-02-25T12:32:45.880Z,3.20
2019-02-25T12:35:21.954Z,3.50
2019-02-25T12:37:59.449Z,3.43
2019-02-25T12:40:30.649Z,3.30
2019-02-25T12:43:04.994Z,3.50
2019-02-25T12:45:36.318Z,3.73
2019-02-25T12:48:14.849Z,3.70
2019-02-25T12:50:46.917Z,3.40
2019-02-25T12:53:18.670Z,3.20
2019-02-25T12:55:50.955Z,3.30
2019-02-25T12:58:22.123Z,2.93
2019-02-25T13:00:57.945Z,3.23
2019-02-25T13:03:28.530Z,3.20
2019-02-25T13:06:01.795Z,3.33
2019-02-25T13:08:34.046Z,3.47
2019-02-25T13:11:06.561Z,3.30
2019-02-25T13:13:37.280Z,3.57
2019-02-25T13:16:13.848Z,3.33
2019-02-25T13:18:44.795Z,3.30
2019-02-25T13:21:16.896Z,3.20
2019-02-25T13:23:48.320Z,3.13
2019-02-25T13:26:19.846Z,3.47
2019-02-25T13:28:51.093Z,3.00
2019-02-25T13:31:24.621Z,2.00
2019-02-25T13:33:55.435Z,1.90
2019-02-25T13:36:29.680Z,2.00
2019-02-25T13:39:03.882Z,1.90
2019-02-25T13:41:39.564Z,2.40
2019-02-25T13:44:12.088Z,2.07
2019-02-25T13:46:43.021Z,1.50
2019-02-25T13:49:15.270Z,2.20
2019-02-25T13:51:50.702Z,2.33
2019-02-25T13:54:21.743Z,2.00
2019-02-25T13:56:52.862Z,2.30
2019-02-25T13:59:37.465Z,2.27
2019-02-25T14:02:16.335Z,2.20
2019-02-25T14:04:48.528Z,2.37
2019-02-25T14:07:20.913Z,2.57
2019-02-25T14:09:52.298Z,2.23
2019-02-25T14:12:31.390Z,2.20
2019-02-25T14:15:11.841Z,1.77
2019-02-25T14:17:57.650Z,1.93
2019-02-25T14:20:34.793Z,1.60
2019-02-25T14:23:02.469Z,2.17
2019-02-25T14:25:33.541Z,2.30
2019-02-25T14:28:08.156Z,1.97
2019-02-25T14:30:44.526Z,2.03
2019-02-25T14:33:15.349Z,2.00
2019-02-25T14:35:52.802Z,2.23
2019-02-25T14:38:29.921Z,1.80
2019-02-25T14:41:06.966Z,1.83
2019-02-25T14:43:47.089Z,2.10
2019-02-25T14:46:17.328Z,1.73
2019-02-25T14:48:52.070Z,2.00
2019-02-25T14:51:22.739Z,2.10
2019-02-25T14:54:01.148Z,1.87
2019-02-25T14:56:32.638Z,2.00
2019-02-25T14:59:13.230Z,2.53
2019-02-25T15:01:47.035Z,1.93
2019-02-25T15:04:17.687Z,1.90
2019-02-25T15:06:48.722Z,1.87
2019-02-25T15:09:21.559Z,1.90
2019-02-25T15:11:55.578Z,1.80
2019-02-25T15:14:26.345Z,1.60
2019-02-25T15:16:57.274Z,2.17
2019-02-25T15:19:30.118Z,2.10
2019-02-25T15:22:00.912Z,2.67
2019-02-25T15:24:33.318Z,2.53
2019-02-25T15:27:04.922Z,2.47
2019-02-25T15:29:37.652Z,2.93
2019-02-25T15:32:10.661Z,2.87
2019-02-25T15:34:41.783Z,2.70
2019-02-25T15:37:18.431Z,2.60
2019-02-25T15:39:52.006Z,2.27
2019-02-25T15:42:24.228Z,2.60
2019-02-25T15:44:57.979Z,2.67
2019-02-25T15:47:30.784Z,2.60
2019-02-25T15:50:04.454Z,2.77
2019-02-25T15:52:46.040Z,2.33
2019-02-25T15:55:19.536Z,2.53
2019-02-25T15:57:50.912Z,2.70
2019-02-25T16:00:25.499Z,3.40
2019-02-25T16:02:58.052Z,3.20
2019-02-25T16:05:31.895Z,3.20
2019-02-25T16:08:02.911Z,3.13
2019-02-25T16:10:32.798Z,2.60
2019-02-25T16:13:10.068Z,2.80
2019-02-25T16:15:44.480Z,3.13
2019-02-25T16:21:16.378Z,2.50
2019-02-25T16:23:51.210Z,2.43
2019-02-25T16:26:25.086Z,2.87
2019-02-25T16:29:04.213Z,3.33
2019-02-25T16:31:33.120Z,3.00
2019-02-25T16:34:05.397Z,2.60
2019-02-25T16:36:38.845Z,2.63
2019-02-25T16:39:10.131Z,2.50
2019-02-25T16:41:46.148Z,2.83
2019-02-25T16:44:18.011Z,2.70
2019-02-25T16:46:50.758Z,3.17
2019-02-25T16:49:33.391Z,2.90
2019-02-25T16:52:04.306Z,2.80
2019-02-25T16:54:39.734Z,3.10
2019-02-25T16:57:14.594Z,2.30
2019-02-25T16:59:53.331Z,3.07
2019-02-25T17:02:23.469Z,2.33
2019-02-25T17:04:56.765Z,2.50
2019-02-25T17:07:32.758Z,2.70
2019-02-25T17:10:05.730Z,2.63
2019-02-25T17:12:39.900Z,2.30
2019-02-25T17:15:13.908Z,2.73
2019-02-25T17:17:52.443Z,3.17
2019-02-25T17:20:27.757Z,3.47
2019-02-25T17:23:00.266Z,3.07
2019-02-25T17:25:38.927Z,5.77
2019-02-25T17:28:15.354Z,2.90
2019-02-25T17:30:49.655Z,3.27
2019-02-25T17:33:24.580Z,3.37
2019-02-25T17:35:59.190Z,3.00
2019-02-25T17:38:33.130Z,3.00
2019-02-25T17:41:08.021Z,3.17
2019-02-25T17:43:45.643Z,3.20
2019-02-25T17:46:23.352Z,3.17
2019-02-25T17:48:54.224Z,2.67
2019-02-25T17:51:25.631Z,2.93
2019-02-25T17:54:05.843Z,2.90
2019-02-25T17:56:40.969Z,3.10
2019-02-25T17:59:16.383Z,2.83
2019-02-25T18:01:50.608Z,2.97
2019-02-25T18:04:21.557Z,2.70
2019-02-25T18:06:55.308Z,3.10
2019-02-25T18:09:27.104Z,2.77
2019-02-25T18:12:02.020Z,2.80
2019-02-25T18:14:38.600Z,3.30
2019-02-25T18:17:10.354Z,3.63
2019-02-25T18:19:45.417Z,4.07
2019-02-25T18:22:17.239Z,4.23
2019-02-25T18:24:51.265Z,3.70
2019-02-25T18:27:22.349Z,4.93
2019-02-25T18:29:53.329Z,3.87
2019-02-25T18:32:35.332Z,3.50
2019-02-25T18:35:02.756Z,3.80
2019-02-25T18:37:37.642Z,3.87
2019-02-25T18:40:14.040Z,3.57
2019-02-25T18:42:46.277Z,3.53
2019-02-25T18:45:20.813Z,3.43
2019-02-25T18:47:52.111Z,3.53
2019-02-25T18:50:28.561Z,3.30
2019-02-25T18:53:01.334Z,3.53
2019-02-25T18:55:34.456Z,3.40
2019-02-25T18:58:11.906Z,3.97
2019-02-25T19:00:51.476Z,3.83
2019-02-25T19:03:37.038Z,4.10
2019-02-25T19:06:11.099Z,3.10
2019-02-25T19:08:43.507Z,3.40
2019-02-25T19:11:18.987Z,4.23
2019-02-25T19:13:51.951Z,3.80
2019-02-25T19:16:24.859Z,3.87
2019-02-25T19:18:56.216Z,3.20
2019-02-25T19:21:34.195Z,3.53
2019-02-25T19:24:07.701Z,3.23
2019-02-25T19:26:42.322Z,3.83
2019-02-25T19:29:15.296Z,3.50
2019-02-25T19:31:46.235Z,3.40
2019-02-25T19:34:20.759Z,3.40
2019-02-25T19:36:51.656Z,3.70
2019-02-25T19:39:25.491Z,3.10
2019-02-25T19:42:00.629Z,3.47
2019-02-25T19:44:36.306Z,2.97
2019-02-25T19:47:09.866Z,2.90
2019-02-25T19:49:43.494Z,3.47
2019-02-25T19:52:17.545Z,3.20
2019-02-25T19:54:50.932Z,3.40
2019-02-25T19:57:26.161Z,3.30
2019-02-25T20:00:00.199Z,3.30
2019-02-25T20:02:35.173Z,3.67
2019-02-25T20:05:11.738Z,3.40
2019-02-25T20:07:41.438Z,3.00
2019-02-25T20:10:13.771Z,2.93
2019-02-25T20:12:45.526Z,2.73
2019-02-25T20:15:20.346Z,3.43
2019-02-25T20:17:52.845Z,3.33
2019-02-25T20:20:25.680Z,3.53
2019-02-25T20:22:59.291Z,3.00
2019-02-25T20:25:35.145Z,3.37
2019-02-25T20:28:12.402Z,3.70
2019-02-25T20:30:44.720Z,3.57
2019-02-25T20:33:16.350Z,3.93
2019-02-25T20:35:51.244Z,3.23
2019-02-25T20:38:22.608Z,3.27
2019-02-25T20:41:02.515Z,2.70
2019-02-25T20:43:33.827Z,3.07
2019-02-25T20:46:09.116Z,3.50
2019-02-25T20:48:48.501Z,3.50
2019-02-25T20:51:20.164Z,4.33
2019-02-25T20:53:53.374Z,4.33
2019-02-25T20:56:26.604Z,4.40
2019-02-25T20:58:58.925Z,4.57
2019-02-25T21:01:30.404Z,4.63
2019-02-25T21:04:05.783Z,4.33
2019-02-25T21:06:39.694Z,4.30
2019-02-25T21:09:14.934Z,4.20
2019-02-25T21:11:47.435Z,5.13
2019-02-25T21:14:18.856Z,5.20
2019-02-25T21:16:54.362Z,4.80
2019-02-25T21:19:27.571Z,4.60
2019-02-25T21:22:00.249Z,5.17
2019-02-25T21:24:33.641Z,4.37
2019-02-25T21:27:10.438Z,4.83
2019-02-25T21:29:41.853Z,5.00
2019-02-25T21:32:17.250Z,5.17
2019-02-25T21:34:52.572Z,5.47
2019-02-25T21:37:21.384Z,4.90
2019-02-25T21:39:53.863Z,4.43
2019-02-25T21:42:28.892Z,4.80
2019-02-25T21:45:02.514Z,5.10
2019-02-25T21:47:35.167Z,5.80
2019-02-25T21:50:11.982Z,5.70
2019-02-25T21:52:47.842Z,5.07
2019-02-25T21:55:23.155Z,6.30
2019-02-25T22:00:49.753Z,5.30
2019-02-25T22:03:24.105Z,5.53
2019-02-25T22:05:57.637Z,5.53
2019-02-25T22:08:29.091Z,5.43
2019-02-25T22:11:12.188Z,5.50
2019-02-25T22:13:46.206Z,5.37
2019-02-25T22:16:21.855Z,6.00
2019-02-25T22:18:52.061Z,5.80
2019-02-25T22:21:24.573Z,5.93
2019-02-25T22:23:57.659Z,6.30
2019-02-25T22:26:30.805Z,6.70
2019-02-25T22:29:01.892Z,5.97
2019-02-25T22:31:34.853Z,6.20
2019-02-25T22:34:08.390Z,5.80
2019-02-25T22:36:41.635Z,5.80
2019-02-25T22:39:10.264Z,5.53
2019-02-25T22:41:42.336Z,5.77
2019-02-25T22:44:16.161Z,5.90
2019-02-25T22:46:48.590Z,5.00
2019-02-25T22:49:19.844Z,6.10
2019-02-25T22:51:55.805Z,6.10
2019-02-25T22:54:26.317Z,6.30
2019-02-25T22:56:57.185Z,5.97
2019-02-25T22:59:27.970Z,5.87
2019-02-25T23:01:58.631Z,5.63
2019-02-25T23:04:29.310Z,6.10
2019-02-25T23:07:03.314Z,5.80
2019-02-25T23:09:33.955Z,6.17
2019-02-25T23:12:05.909Z,6.50
2019-02-25T23:14:38.381Z,5.20
2019-02-25T23:17:10.995Z,5.77
2019-02-25T23:19:45.221Z,5.93
2019-02-25T23:22:18.038Z,5.73
2019-02-25T23:24:48.820Z,5.43
2019-02-25T23:27:20.831Z,4.90
2019-02-25T23:29:53.857Z,4.87
2019-02-25T23:32:31.951Z,5.87
2019-02-25T23:35:02.664Z,5.47
2019-02-25T23:37:33.292Z,4.80
2019-02-25T23:40:07.238Z,6.03
2019-02-25T23:42:39.629Z,5.43
2019-02-25T23:45:10.768Z,5.47
2019-02-25T23:47:41.819Z,5.73
2019-02-25T23:50:13.715Z,5.87
2019-02-25T23:52:44.299Z,5.20
2019-02-25T23:55:17.210Z,5.87
2019-02-25T23:57:47.322Z,5.33
